Time;durP1;ratioP1;P1;durP2;ratioP2;P2;SDS_P1;SDS_P2;PMS_P1;PMS_P2;Temp;Humidity;BMP_temperature;BMP_pressure;BME280_temperature;BME280_humidity;BME280_pressure;Samples;Min_cycle;Max_cycle;Signal;HPM_P1;HPM_P2
2022/08/13 00:01:34;;;;;;;5.60;1.92;;;13.80;99.90;;;;;;5091689;28;20051;-49
2022/08/13 00:04:06;;;;;;;6.53;2.28;;;13.80;99.90;;;;;;5075547;28;20047;-51
2022/08/13 00:09:15;;;;;;;4.25;2.35;;;13.60;99.90;;;;;;5052927;28;20062;-49
2022/08/13 00:14:35;;;;;;;2.25;1.90;;;13.60;99.90;;;;;;5077261;28;20127;-50
2022/08/13 00:17:12;;;;;;;2.90;2.28;;;13.50;99.90;;;;;;5083666;28;20548;-51
2022/08/13 00:19:42;;;;;;;3.38;1.83;;;13.40;99.90;;;;;;5082314;28;20497;-52
2022/08/13 00:22:19;;;;;;;3.17;2.03;;;13.50;99.90;;;;;;5075818;28;20047;-50
2022/08/13 00:24:58;;;;;;;5.35;1.90;;;13.50;99.90;;;;;;5082792;28;20048;-50
2022/08/13 00:27:26;;;;;;;2.30;2.05;;;13.50;99.90;;;;;;5091666;28;20726;-50
2022/08/13 00:30:14;;;;;;;2.90;2.10;;;13.50;99.90;;;;;;5090855;28;20040;-52
2022/08/13 00:32:43;;;;;;;2.42;2.03;;;13.50;99.90;;;;;;5080600;28;20036;-52
2022/08/13 00:35:12;;;;;;;2.22;1.80;;;13.50;99.90;;;;;;5070899;28;20055;-51
2022/08/13 00:37:50;;;;;;;2.53;1.90;;;13.50;99.90;;;;;;5070985;28;20063;-53
2022/08/13 00:40:20;;;;;;;3.95;1.98;;;13.30;99.90;;;;;;5075595;28;20054;-52
2022/08/13 00:43:04;;;;;;;2.60;2.10;;;13.50;99.90;;;;;;5059089;28;20056;-50
2022/08/13 00:45:32;;;;;;;3.58;1.90;;;13.40;99.90;;;;;;5070440;28;20056;-50
2022/08/13 00:50:50;;;;;;;2.65;1.80;;;13.40;99.90;;;;;;5082950;28;20043;-49
2022/08/13 00:53:18;;;;;;;2.17;1.70;;;13.40;99.90;;;;;;5091604;28;20400;-50
2022/08/13 00:55:53;;;;;;;2.17;1.50;;;13.40;99.90;;;;;;5091414;28;20060;-50
2022/08/13 00:58:22;;;;;;;4.75;2.25;;;13.50;99.90;;;;;;5081916;28;20036;-50
2022/08/13 01:00:59;;;;;;;2.58;2.20;;;13.50;99.90;;;;;;5088384;28;20036;-49
2022/08/13 01:03:29;;;;;;;3.00;2.08;;;13.50;99.90;;;;;;5091558;28;20059;-49
2022/08/13 01:06:16;;;;;;;2.22;1.77;;;13.50;99.90;;;;;;5082266;28;20165;-49
2022/08/13 01:08:46;;;;;;;3.45;1.85;;;13.30;99.90;;;;;;5074832;28;20056;-50
2022/08/13 01:11:22;;;;;;;2.17;1.70;;;13.20;99.90;;;;;;5071189;28;20041;-52
2022/08/13 01:13:51;;;;;;;2.47;1.60;;;13.10;99.90;;;;;;5071270;28;20095;-49
2022/08/13 01:16:19;;;;;;;2.72;1.80;;;13.00;99.90;;;;;;5082801;28;20043;-49
2022/08/13 01:18:51;;;;;;;4.72;2.03;;;12.90;99.90;;;;;;5091294;28;20040;-49
2022/08/13 01:21:23;;;;;;;1.88;1.77;;;12.90;99.90;;;;;;5090319;28;20055;-49
2022/08/13 01:24:09;;;;;;;3.20;2.03;;;12.90;99.90;;;;;;5082206;28;20044;-49
2022/08/13 01:26:39;;;;;;;2.55;1.80;;;12.90;99.90;;;;;;5091181;28;20097;-49
2022/08/13 01:29:16;;;;;;;2.88;1.88;;;12.80;99.90;;;;;;5091025;28;20097;-49
2022/08/13 01:31:44;;;;;;;2.20;1.92;;;12.80;99.90;;;;;;5087031;28;20048;-49
2022/08/13 01:34:15;;;;;;;2.47;1.90;;;12.80;99.90;;;;;;5078736;28;20048;-49
2022/08/13 01:36:53;;;;;;;3.15;2.03;;;12.80;99.90;;;;;;5071066;28;20548;-49
2022/08/13 01:39:23;;;;;;;2.58;1.90;;;12.90;99.90;;;;;;5071099;28;20052;-49
2022/08/13 01:41:55;;;;;;;3.58;1.90;;;12.80;99.90;;;;;;5078744;28;20051;-49
2022/08/13 01:44:25;;;;;;;3.53;2.03;;;12.80;99.90;;;;;;5084955;28;20050;-51
2022/08/13 01:53:03;;;;;;;3.97;2.10;;;12.80;99.90;;;;;;5082351;28;20048;-49
2022/08/13 01:55:37;;;;;;;1.90;1.67;;;12.80;99.90;;;;;;5091159;28;20074;-51
2022/08/13 01:58:26;;;;;;;3.35;2.20;;;12.90;99.90;;;;;;5088990;28;20065;-49
2022/08/13 02:00:57;;;;;;;2.28;2.00;;;12.90;99.90;;;;;;5082253;28;20032;-50
2022/08/13 02:03:25;;;;;;;2.13;1.80;;;12.90;99.90;;;;;;5090995;28;20463;-50
2022/08/13 02:05:56;;;;;;;3.22;2.08;;;12.90;99.90;;;;;;5085677;28;20135;-49
2022/08/13 02:08:43;;;;;;;;;;;12.70;99.90;;;;;;5085303;28;20048;-50
2022/08/13 02:11:14;;;;;;;3.45;2.05;;;12.70;99.90;;;;;;5094091;28;19919;-49
2022/08/13 02:13:42;;;;;;;2.78;1.98;;;12.70;99.90;;;;;;5076591;28;20115;-49
2022/08/13 02:16:15;;;;;;;2.83;2.08;;;12.70;99.90;;;;;;5086952;28;20127;-49
2022/08/13 02:18:42;;;;;;;3.80;2.33;;;12.70;99.90;;;;;;5085847;28;20044;-50
2022/08/13 02:21:11;;;;;;;6.43;2.35;;;12.70;99.90;;;;;;5094007;28;20123;-49
2022/08/13 02:23:57;;;;;;;2.55;2.05;;;12.80;99.90;;;;;;5094640;28;20040;-49
2022/08/13 02:26:28;;;;;;;3.00;2.13;;;12.80;99.90;;;;;;5086823;28;20099;-50
2022/08/13 02:28:59;;;;;;;2.67;2.25;;;12.70;99.90;;;;;;5074006;28;20596;-49
2022/08/13 02:31:28;;;;;;;4.55;1.90;;;12.70;99.90;;;;;;5075914;28;20131;-50
2022/08/13 02:34:15;;;;;;;2.30;2.03;;;12.70;99.90;;;;;;5087442;28;20082;-50
2022/08/13 02:36:46;;;;;;;4.85;2.05;;;12.70;99.90;;;;;;5085597;28;20051;-49
2022/08/13 02:39:22;;;;;;;2.42;1.95;;;12.70;99.90;;;;;;5094060;28;20489;-50
2022/08/13 02:41:54;;;;;;;2.47;1.98;;;12.70;99.90;;;;;;5092558;28;20040;-49
2022/08/13 02:44:23;;;;;;;2.08;1.90;;;12.70;99.90;;;;;;5082079;28;20044;-49
2022/08/13 02:47:04;;;;;;;5.55;1.80;;;12.60;99.90;;;;;;5092670;28;20055;-49
2022/08/13 02:49:32;;;;;;;3.47;2.35;;;12.70;99.90;;;;;;5094068;28;20048;-49
2022/08/13 02:52:13;;;;;;;2.95;2.53;;;12.70;99.90;;;;;;5089495;28;20443;-49
2022/08/13 02:54:44;;;;;;;3.05;2.35;;;12.60;99.90;;;;;;5081510;28;20079;-51
2022/08/13 02:57:23;;;;;;;5.93;2.50;;;12.60;99.90;;;;;;5073649;28;20040;-50
2022/08/13 02:59:50;;;;;;;3.38;2.47;;;12.60;99.90;;;;;;5073406;28;20044;-49
2022/08/13 03:02:38;;;;;;;3.67;2.30;;;12.60;99.90;;;;;;5079691;28;20493;-49
2022/08/13 03:05:08;;;;;;;2.85;2.10;;;12.50;99.90;;;;;;5083647;22;20040;-48
2022/08/13 03:07:41;;;;;;;6.78;2.53;;;12.40;99.90;;;;;;5072575;28;20044;-47
2022/08/13 03:10:23;;;;;;;6.53;3.53;;;12.30;99.90;;;;;;5053181;28;20079;-50
2022/08/13 03:13:21;;;;;;;2.67;2.20;;;12.20;99.90;;;;;;5053476;28;20079;-52
2022/08/13 03:15:53;;;;;;;7.15;2.67;;;12.10;99.90;;;;;;5052974;28;20452;-51
2022/08/13 03:18:30;;;;;;;4.88;2.17;;;12.10;99.90;;;;;;5053222;28;20051;-49
2022/08/13 03:21:18;;;;;;;2.35;2.15;;;12.00;99.90;;;;;;5052889;28;20152;-50
2022/08/13 03:24:07;;;;;;;5.10;2.55;;;12.00;99.90;;;;;;5051506;28;20037;-49
2022/08/13 03:26:36;;;;;;;3.03;2.38;;;12.00;99.90;;;;;;5053361;28;20535;-49
2022/08/13 03:29:06;;;;;;;5.13;2.10;;;11.90;99.90;;;;;;5053215;28;20037;-49
2022/08/13 03:31:35;;;;;;;3.20;2.17;;;11.90;99.90;;;;;;5052755;28;20041;-50
2022/08/13 03:34:21;;;;;;;4.57;2.22;;;11.90;99.90;;;;;;5051047;28;20036;-52
2022/08/13 03:36:49;;;;;;;4.40;2.65;;;11.90;99.90;;;;;;5052807;28;20049;-49
2022/08/13 03:39:16;;;;;;;3.63;2.35;;;11.80;99.90;;;;;;5053177;28;20416;-51
2022/08/13 03:41:43;;;;;;;3.72;2.60;;;11.70;99.90;;;;;;5050996;28;20041;-48
2022/08/13 03:44:17;;;;;;;7.18;2.20;;;11.70;99.90;;;;;;5045454;28;20045;-51
2022/08/13 03:46:54;;;;;;;3.00;2.38;;;11.70;99.90;;;;;;5052871;28;20049;-50
2022/08/13 03:49:21;;;;;;;3.22;2.10;;;11.60;99.90;;;;;;5052702;28;20049;-49
2022/08/13 03:51:55;;;;;;;2.28;2.00;;;11.50;99.90;;;;;;5050218;28;20140;-49
2022/08/13 03:54:25;;;;;;;2.17;1.98;;;11.60;99.90;;;;;;5052790;28;20051;-49
2022/08/13 03:56:52;;;;;;;2.85;2.17;;;11.60;99.90;;;;;;5052563;28;20091;-50
2022/08/13 03:59:31;;;;;;;5.13;2.83;;;11.60;99.90;;;;;;5048262;28;20128;-50
2022/08/13 04:02:15;;;;;;;3.10;2.30;;;11.60;99.90;;;;;;5044239;28;20049;-50
2022/08/13 04:04:47;;;;;;;4.43;2.88;;;11.70;99.90;;;;;;5052159;28;20497;-49
2022/08/13 04:07:20;;;;;;;3.92;2.50;;;11.60;99.90;;;;;;5050503;28;20037;-51
2022/08/13 04:09:54;;;;;;;3.03;2.33;;;11.60;99.90;;;;;;5051862;28;20489;-51
2022/08/13 04:12:22;;;;;;;6.93;2.58;;;11.60;99.90;;;;;;5052109;28;20048;-49
2022/08/13 04:14:50;;;;;;;3.30;2.40;;;11.60;99.90;;;;;;5049082;28;20045;-46
2022/08/13 04:17:29;;;;;;;3.13;2.03;;;11.60;99.90;;;;;;5052053;28;20041;-49
2022/08/13 04:19:59;;;;;;;4.10;2.50;;;11.70;99.90;;;;;;5051772;28;20095;-48
2022/08/13 04:22:27;;;;;;;3.85;2.65;;;11.70;99.90;;;;;;5052242;28;20079;-49
2022/08/13 04:24:54;;;;;;;3.25;2.42;;;11.70;99.90;;;;;;5049185;28;20040;-51
2022/08/13 04:27:21;;;;;;;;;;;11.70;99.90;;;;;;5052064;28;20041;-47
2022/08/13 04:29:51;;;;;;;3.00;2.70;;;11.70;99.90;;;;;;5051746;28;19959;-52
2022/08/13 04:32:19;;;;;;;3.17;2.70;;;11.80;99.90;;;;;;5051702;28;20069;-51
2022/08/13 04:34:51;;;;;;;3.67;2.47;;;11.70;99.90;;;;;;5048125;28;20049;-49
2022/08/13 04:37:25;;;;;;;4.40;2.65;;;11.70;99.90;;;;;;5051743;28;20063;-50
2022/08/13 04:40:13;;;;;;;4.32;2.55;;;11.80;99.90;;;;;;5051522;28;20064;-50
2022/08/13 04:42:56;;;;;;;4.93;2.67;;;11.80;99.90;;;;;;5047221;28;20661;-49
2022/08/13 04:45:28;;;;;;;3.08;2.47;;;11.80;99.90;;;;;;5051426;28;20041;-50
2022/08/13 04:48:00;;;;;;;4.30;2.70;;;11.90;99.90;;;;;;5051778;28;20075;-51
2022/08/13 04:50:33;;;;;;;4.25;2.13;;;11.90;99.90;;;;;;5051041;28;20056;-50
2022/08/13 04:53:03;;;;;;;2.63;2.20;;;12.00;99.90;;;;;;5044280;28;20402;-48
2022/08/13 04:55:31;;;;;;;3.28;2.42;;;12.00;99.90;;;;;;5051585;28;20044;-49
2022/08/13 04:58:18;;;;;;;7.28;2.85;;;12.00;99.90;;;;;;5051512;28;20501;-47
2022/08/13 05:00:45;;;;;;;3.05;2.47;;;12.00;99.90;;;;;;5048623;28;20044;-49
2022/08/13 05:03:20;;;;;;;4.35;2.40;;;12.00;99.90;;;;;;5044208;28;20052;-49
2022/08/13 05:05:51;;;;;;;4.53;2.75;;;11.90;99.90;;;;;;5051289;28;20045;-47
2022/08/13 05:08:19;;;;;;;3.75;2.58;;;12.00;99.90;;;;;;5051243;28;20049;-50
2022/08/13 05:10:50;;;;;;;;;;;12.00;99.90;;;;;;5046428;28;20045;-49
2022/08/13 05:13:25;;;;;;;5.88;3.35;;;12.20;99.90;;;;;;5051259;28;19920;-48
2022/08/13 05:15:59;;;;;;;4.47;3.33;;;12.30;99.90;;;;;;5051530;28;20048;-49
2022/08/13 05:18:31;;;;;;;6.43;3.15;;;12.30;99.90;;;;;;5051351;28;20040;-50
2022/08/13 05:21:03;;;;;;;3.35;2.90;;;12.30;99.90;;;;;;5049104;28;20095;-48
2022/08/13 05:23:34;;;;;;;4.28;2.95;;;12.30;99.90;;;;;;5051427;28;20481;-49
2022/08/13 05:26:25;;;;;;;7.97;2.97;;;12.30;99.90;;;;;;5051280;28;20080;-49
2022/08/13 05:29:13;;;;;;;5.28;3.50;;;12.40;99.90;;;;;;5043207;28;20091;-49
2022/08/13 05:31:39;;;;;;;4.35;3.22;;;12.50;99.90;;;;;;5050617;28;20033;-50
2022/08/13 05:34:25;;;;;;;8.68;3.75;;;12.60;99.90;;;;;;5051259;28;20067;-50
2022/08/13 05:36:55;;;;;;;3.92;3.53;;;12.60;99.90;;;;;;5050721;28;20098;-49
2022/08/13 05:39:43;;;;;;;7.97;3.28;;;12.50;99.90;;;;;;5051099;28;20049;-50
2022/08/13 05:42:18;;;;;;;4.72;3.45;;;12.50;99.90;;;;;;5047505;28;20055;-48
2022/08/13 05:44:47;;;;;;;4.97;3.38;;;12.50;99.90;;;;;;5051171;28;20076;-49
2022/08/13 05:47:15;;;;;;;4.93;3.50;;;12.50;99.90;;;;;;5055295;28;20128;-50
2022/08/13 05:49:43;;;;;;;6.55;3.08;;;12.50;99.90;;;;;;5052940;28;20094;-49
2022/08/13 05:52:25;;;;;;;4.70;3.00;;;12.60;99.90;;;;;;5048499;28;20048;-51
2022/08/13 05:55:13;;;;;;;4.78;3.28;;;12.60;99.90;;;;;;5055002;28;20411;-49
2022/08/13 05:58:00;;;;;;;4.35;3.40;;;12.70;99.90;;;;;;5036373;28;20527;-50
2022/08/13 06:03:33;;;;;;;4.85;3.42;;;12.80;99.90;;;;;;5034682;28;20107;-50
2022/08/13 06:06:21;;;;;;;4.70;3.35;;;12.90;99.90;;;;;;5034799;28;20049;-48
2022/08/13 06:08:56;;;;;;;4.43;3.40;;;12.90;99.90;;;;;;5043430;28;20048;-49
2022/08/13 06:11:26;;;;;;;8.32;3.97;;;12.90;99.90;;;;;;5036646;28;20041;-49
2022/08/13 06:14:20;;;;;;;5.25;4.15;;;13.00;99.90;;;;;;5054576;28;20049;-49
2022/08/13 06:16:51;;;;;;;6.13;4.03;;;13.20;99.90;;;;;;5054595;28;20048;-48
2022/08/13 06:19:26;;;;;;;6.07;3.80;;;13.30;99.90;;;;;;5049967;28;20037;-48
2022/08/13 06:22:00;;;;;;;4.07;3.65;;;13.40;99.90;;;;;;5054049;28;20677;-51
2022/08/13 06:24:29;;;;;;;4.78;3.35;;;13.60;99.90;;;;;;5054053;28;20045;-49
2022/08/13 06:27:00;;;;;;;4.63;3.47;;;13.80;99.90;;;;;;5046951;28;20116;-51
2022/08/13 06:29:28;;;;;;;4.95;3.78;;;14.10;99.90;;;;;;5054205;28;20033;-49
2022/08/13 06:32:03;;;;;;;8.07;3.58;;;14.20;99.90;;;;;;5053852;28;20052;-49
2022/08/13 06:34:51;;;;;;;3.88;3.20;;;14.40;99.90;;;;;;5053930;28;20499;-49
2022/08/13 06:37:18;;;;;;;10.57;3.30;;;14.60;99.90;;;;;;5052618;28;20056;-49
2022/08/13 06:39:45;;;;;;;3.55;2.72;;;14.90;99.90;;;;;;5053986;28;20059;-47
2022/08/13 06:42:30;;;;;;;4.50;2.72;;;15.10;99.90;;;;;;5054142;28;20056;-49
2022/08/13 06:44:58;;;;;;;8.90;2.72;;;15.30;99.90;;;;;;5050686;28;20683;-50
2022/08/13 06:47:29;;;;;;;5.63;2.63;;;15.50;99.90;;;;;;5053753;28;20107;-52
2022/08/13 06:50:10;;;;;;;4.22;2.78;;;15.50;99.90;;;;;;5053627;28;20072;-49
2022/08/13 06:52:38;;;;;;;3.70;2.72;;;15.60;99.90;;;;;;5053657;28;20493;-49
2022/08/13 06:55:08;;;;;;;3.13;2.80;;;15.70;99.90;;;;;;5048812;28;20051;-49
2022/08/13 06:57:56;;;;;;;5.93;3.05;;;15.90;99.90;;;;;;5053642;28;20045;-51
2022/08/13 07:00:43;;;;;;;5.20;3.15;;;15.90;99.90;;;;;;5053413;28;20482;-46
2022/08/13 07:03:17;;;;;;;4.43;3.22;;;16.00;99.90;;;;;;5049944;28;20032;-49
2022/08/13 07:05:47;;;;;;;3.63;2.75;;;16.10;99.90;;;;;;5050121;28;20045;-50
2022/08/13 07:08:28;;;;;;;3.63;3.00;;;16.20;99.90;;;;;;5053565;28;20063;-50
2022/08/13 07:14:03;;;;;;;3.58;2.90;;;16.20;99.90;;;;;;5045044;28;20037;-51
2022/08/13 07:16:33;;;;;;;4.65;2.67;;;16.30;99.90;;;;;;5053265;28;20095;-51
2022/08/13 07:19:01;;;;;;;3.22;2.70;;;16.50;99.90;;;;;;5053160;28;20049;-48
2022/08/13 07:21:30;;;;;;;4.82;2.50;;;16.60;99.90;;;;;;5051277;28;20052;-50
2022/08/13 07:24:10;;;;;;;3.65;2.70;;;16.70;99.90;;;;;;5052993;28;20036;-49
2022/08/13 07:27:07;;;;;;;5.85;4.07;;;16.80;99.90;;;;;;5053318;28;20045;-49
2022/08/13 07:29:38;;;;;;;4.80;2.92;;;16.90;99.90;;;;;;5051263;28;20429;-49
2022/08/13 07:32:17;;;;;;;5.93;3.00;;;16.90;99.90;;;;;;5052375;28;20073;-51
2022/08/13 07:34:46;;;;;;;5.25;3.10;;;17.00;99.90;;;;;;5052576;28;20038;-52
2022/08/13 07:37:21;;;;;;;4.20;2.75;;;17.10;99.90;;;;;;5052285;28;20037;-53
2022/08/13 07:39:50;;;;;;;4.30;3.40;;;17.00;99.90;;;;;;5050065;28;20739;-49
2022/08/13 07:42:20;;;;;;;3.53;2.78;;;17.00;99.90;;;;;;5049597;28;20408;-50
2022/08/13 07:44:58;;;;;;;3.80;3.08;;;17.20;99.90;;;;;;5050261;28;20037;-51
2022/08/13 07:47:50;;;;;;;3.37;2.80;;;17.30;99.90;;;;;;5050934;28;20591;-48
2022/08/13 07:50:39;;;;;;;2.78;2.58;;;17.40;99.90;;;;;;5048392;28;20045;-53
2022/08/13 07:53:10;;;;;;;4.15;2.90;;;17.50;99.90;;;;;;5051370;28;20048;-49
2022/08/13 07:55:43;;;;;;;3.15;2.30;;;17.70;99.90;;;;;;5052539;28;20048;-48
2022/08/13 07:58:33;;;;;;;3.38;2.38;;;17.90;99.90;;;;;;5048899;28;20099;-50
2022/08/13 08:01:01;;;;;;;3.28;2.63;;;18.00;99.90;;;;;;5050401;28;20045;-49
2022/08/13 08:03:41;;;;;;;4.90;2.53;;;18.20;99.90;;;;;;5051931;28;20049;-50
2022/08/13 08:06:18;;;;;;;3.75;2.80;;;18.10;99.90;;;;;;5050324;28;20044;-49
2022/08/13 08:08:56;;;;;;;4.75;3.33;;;18.30;99.90;;;;;;5049997;28;20124;-48
2022/08/13 08:14:18;;;;;;;3.10;2.60;;;18.90;99.90;;;;;;5049108;28;20445;-49
2022/08/13 08:17:02;;;;;;;4.97;2.30;;;19.10;99.90;;;;;;5050095;28;20041;-49
2022/08/13 08:19:50;;;;;;;3.65;2.45;;;19.30;99.90;;;;;;5051867;28;20126;-50
2022/08/13 08:22:45;;;;;;;2.75;2.13;;;19.20;99.90;;;;;;5051115;28;20130;-50
2022/08/13 08:25:20;;;;;;;3.95;2.30;;;19.00;99.90;;;;;;5049898;28;20040;-49
2022/08/13 08:27:49;;;;;;;3.38;2.33;;;19.20;99.90;;;;;;5050079;28;20079;-50
2022/08/13 08:30:37;;;;;;;3.40;2.08;;;19.50;99.90;;;;;;5050709;28;20778;-47
2022/08/13 08:33:25;;;;;;;11.57;2.25;;;19.70;99.90;;;;;;5045817;28;20041;-51
2022/08/13 08:36:13;;;;;;;3.38;2.30;;;20.00;99.90;;;;;;5042255;28;20110;-50
2022/08/13 08:44:34;;;;;;;3.45;2.03;;;20.20;99.90;;;;;;5038093;28;20038;-51
2022/08/13 08:47:01;;;;;;;8.98;2.10;;;20.20;99.90;;;;;;5049917;28;20497;-49
2022/08/13 08:49:36;;;;;;;5.75;2.53;;;20.20;99.90;;;;;;5048238;28;20190;-49
2022/08/13 08:52:11;;;;;;;3.33;2.28;;;20.30;99.90;;;;;;5050815;28;20041;-49
2022/08/13 08:54:45;;;;;;;4.45;2.35;;;20.40;99.90;;;;;;5051487;28;20049;-52
2022/08/13 08:57:16;;;;;;;3.05;2.13;;;20.30;99.90;;;;;;5049465;28;20045;-51
2022/08/13 08:59:43;;;;;;;4.57;2.38;;;20.40;99.90;;;;;;5047427;28;20076;-52
2022/08/13 09:02:23;;;;;;;2.33;2.13;;;20.50;99.90;;;;;;5031522;28;20053;-50
2022/08/13 09:04:54;;;;;;;2.60;1.80;;;20.70;99.90;;;;;;5031494;28;20465;-50
2022/08/13 09:07:27;;;;;;;2.72;2.20;;;20.70;99.90;;;;;;5049568;28;20497;-51
2022/08/13 09:09:58;;;;;;;3.55;2.22;;;21.00;99.90;;;;;;5049266;28;20065;-49
2022/08/13 09:12:26;;;;;;;3.50;2.28;;;21.20;99.90;;;;;;5048506;28;20060;-51
2022/08/13 09:14:57;;;;;;;2.53;2.10;;;21.20;99.90;;;;;;5051195;28;20094;-51
2022/08/13 09:17:26;;;;;;;3.58;2.30;;;21.40;99.90;;;;;;5048673;28;20049;-53
2022/08/13 09:20:12;;;;;;;5.28;2.10;;;21.50;99.90;;;;;;5050447;28;20448;-53
2022/08/13 09:22:41;;;;;;;11.20;6.15;;;21.80;99.90;;;;;;5050577;28;20076;-53
2022/08/13 09:25:51;;;;;;;7.95;2.50;;;22.00;99.90;;;;;;5071087;28;20063;-52
2022/08/13 09:28:23;;;;;;;5.30;2.38;;;22.00;99.40;;;;;;5071079;28;20051;-53
2022/08/13 09:31:03;;;;;;;2.33;2.10;;;22.10;99.90;;;;;;5070944;28;20064;-50
2022/08/13 09:33:40;;;;;;;3.00;1.95;;;22.30;99.30;;;;;;5069550;28;20455;-51
2022/08/13 09:36:28;;;;;;;1.80;1.70;;;22.30;99.20;;;;;;5081779;28;20090;-51
2022/08/13 09:38:56;;;;;;;6.65;2.10;;;22.30;98.20;;;;;;5082733;28;20047;-53
2022/08/13 09:41:36;;;;;;;3.40;1.70;;;22.30;98.60;;;;;;5091051;28;20109;-51
2022/08/13 09:44:04;;;;;;;2.97;1.90;;;22.60;97.90;;;;;;5089361;28;20044;-50
2022/08/13 09:46:43;;;;;;;3.30;2.05;;;22.70;98.30;;;;;;5075407;28;20047;-50
2022/08/13 09:49:20;;;;;;;4.00;1.63;;;22.70;97.60;;;;;;5051134;28;20073;-51
2022/08/13 09:52:04;;;;;;;2.22;1.80;;;22.60;97.30;;;;;;5050705;28;20064;-52
2022/08/13 09:54:49;;;;;;;2.10;1.70;;;22.80;97.60;;;;;;5063286;28;20048;-53
2022/08/13 09:57:20;;;;;;;2.25;1.65;;;22.80;97.30;;;;;;5079399;28;20048;-50
2022/08/13 09:59:48;;;;;;;2.83;1.70;;;22.70;97.90;;;;;;5070650;28;20131;-51
2022/08/13 10:02:23;;;;;;;5.18;1.90;;;22.80;97.30;;;;;;5070805;28;20040;-50
2022/08/13 10:04:53;;;;;;;3.83;2.13;;;22.90;98.50;;;;;;5077688;28;20040;-51
2022/08/13 10:07:22;;;;;;;2.90;2.10;;;23.00;97.50;;;;;;5079049;28;20497;-49
2022/08/13 10:09:49;;;;;;;2.40;1.80;;;23.10;96.80;;;;;;5070782;28;20041;-52
2022/08/13 10:12:36;;;;;;;4.97;1.98;;;23.10;97.60;;;;;;5070882;28;20053;-49
2022/08/13 10:15:06;;;;;;;4.60;2.05;;;23.20;97.40;;;;;;5074732;28;20040;-49
2022/08/13 10:17:55;;;;;;;1.73;1.60;;;23.20;96.60;;;;;;5073955;28;20535;-51
2022/08/13 10:20:36;;;;;;;2.88;1.73;;;23.30;96.70;;;;;;5070342;28;20055;-49
2022/08/13 10:23:05;;;;;;;2.22;1.73;;;23.40;96.30;;;;;;5070746;28;20516;-53
2022/08/13 10:25:32;;;;;;;2.00;1.55;;;23.50;96.40;;;;;;5079354;28;20489;-51
2022/08/13 10:28:25;;;;;;;2.13;1.70;;;23.50;95.80;;;;;;5050517;28;20036;-53
2022/08/13 10:31:02;;;;;;;3.05;1.98;;;23.60;95.10;;;;;;5053896;28;20043;-51
2022/08/13 10:33:52;;;;;;;2.40;1.63;;;23.90;95.60;;;;;;5079929;28;20105;-51
2022/08/13 10:36:18;;;;;;;2.60;1.77;;;24.00;96.00;;;;;;5073652;28;20055;-50
2022/08/13 10:38:46;;;;;;;3.20;2.35;;;24.10;95.70;;;;;;5073346;28;20044;-53
2022/08/13 10:41:21;;;;;;;3.25;1.67;;;24.00;95.40;;;;;;5060439;28;20098;-53
2022/08/13 10:43:48;;;;;;;3.33;1.77;;;24.20;94.20;;;;;;5073737;28;20511;-51
2022/08/13 10:46:23;;;;;;;1.83;1.25;;;24.30;94.90;;;;;;5072043;28;20041;-51
2022/08/13 10:48:55;;;;;;;2.95;1.55;;;24.30;92.90;;;;;;5073271;28;20820;-52
2022/08/13 10:51:28;;;;;;;1.70;1.60;;;24.30;93.20;;;;;;5072786;28;20037;-52
2022/08/13 10:54:00;;;;;;;2.17;1.65;;;24.50;93.30;;;;;;5072115;28;20049;-51
2022/08/13 10:56:30;;;;;;;2.45;1.50;;;24.50;93.20;;;;;;5072032;28;20067;-51
2022/08/13 10:59:00;;;;;;;2.17;1.80;;;24.30;93.90;;;;;;5075138;28;20032;-51
2022/08/13 11:01:28;;;;;;;3.25;1.60;;;24.20;94.20;;;;;;5072545;28;20075;-51
2022/08/13 11:03:58;;;;;;;3.47;1.60;;;24.20;94.40;;;;;;5073000;28;20029;-51
2022/08/13 11:06:32;;;;;;;5.15;1.45;;;24.20;94.50;;;;;;5075393;28;20074;-52
2022/08/13 11:09:04;;;;;;;2.50;1.65;;;24.30;94.70;;;;;;5072951;28;20048;-52
2022/08/13 11:11:57;;;;;;;3.60;1.85;;;24.40;94.00;;;;;;5069873;28;20064;-51
2022/08/13 11:14:41;;;;;;;2.97;1.60;;;24.50;94.70;;;;;;5073095;28;20036;-54
2022/08/13 11:17:17;;;;;;;3.03;1.90;;;24.70;93.70;;;;;;5036144;28;20124;-50
2022/08/13 11:20:13;;;;;;;1.70;1.60;;;24.90;95.00;;;;;;5053109;28;20513;-50
2022/08/13 11:22:54;;;;;;;4.07;2.00;;;25.30;94.40;;;;;;5062971;28;20447;-51
2022/08/13 11:25:22;;;;;;;2.30;1.85;;;25.40;95.30;;;;;;5071696;28;20037;-50
2022/08/13 11:28:12;;;;;;;1.95;1.77;;;25.40;95.40;;;;;;5073146;28;20117;-53
2022/08/13 11:30:46;;;;;;;4.47;1.85;;;25.70;95.10;;;;;;5070086;28;20405;-50
2022/08/13 11:33:17;;;;;;;4.88;1.80;;;25.80;94.40;;;;;;5073745;28;20554;-52
2022/08/13 11:35:44;;;;;;;2.15;2.00;;;26.00;95.20;;;;;;5074005;28;20036;-51
2022/08/13 11:38:17;;;;;;;3.72;2.40;;;26.10;94.00;;;;;;5071625;28;20032;-50
2022/08/13 11:40:58;;;;;;;3.78;1.90;;;26.10;94.40;;;;;;5070530;28;20128;-51
2022/08/13 11:43:29;;;;;;;2.28;1.90;;;26.20;94.40;;;;;;5071030;28;20485;-50
2022/08/13 11:46:16;;;;;;;1.95;1.80;;;26.30;94.50;;;;;;5086148;28;20562;-50
2022/08/13 11:48:46;;;;;;;3.42;1.95;;;26.30;93.00;;;;;;5072046;28;20136;-51
2022/08/13 11:51:33;;;;;;;3.17;1.90;;;26.20;95.00;;;;;;5069753;28;20110;-50
2022/08/13 11:54:19;;;;;;;1.70;1.60;;;26.20;93.50;;;;;;5076499;28;20047;-51
2022/08/13 11:56:59;;;;;;;2.40;1.92;;;26.30;93.90;;;;;;5073788;28;20048;-50
2022/08/13 11:59:26;;;;;;;4.07;2.10;;;26.50;92.80;;;;;;5072480;28;20118;-51
2022/08/13 12:02:11;;;;;;;4.68;2.03;;;26.80;92.60;;;;;;5072873;28;20090;-50
2022/08/13 12:04:44;;;;;;;4.82;1.83;;;26.80;93.10;;;;;;5080596;28;20040;-51
2022/08/13 12:07:25;;;;;;;3.40;1.80;;;26.90;91.20;;;;;;5072390;28;20068;-50
2022/08/13 12:09:55;;;;;;;1.75;1.63;;;26.30;91.60;;;;;;5071932;28;20055;-52
2022/08/13 12:12:25;;;;;;;4.78;1.90;;;26.00;91.10;;;;;;5080686;28;20047;-53
2022/08/13 12:15:07;;;;;;;2.42;1.70;;;25.60;91.50;;;;;;5072765;28;20135;-52
2022/08/13 12:17:34;;;;;;;2.20;1.80;;;25.30;92.60;;;;;;5077986;28;20094;-54
2022/08/13 12:20:22;;;;;;;1.80;1.70;;;24.90;92.40;;;;;;5071658;28;20044;-50
2022/08/13 12:22:56;;;;;;;5.10;2.00;;;24.50;92.80;;;;;;5072217;28;20052;-51
2022/08/13 12:25:25;;;;;;;8.05;1.95;;;24.20;92.90;;;;;;5065114;28;20044;-52
2022/08/13 12:28:18;;;;;;;4.97;2.13;;;24.00;93.70;;;;;;5083770;28;20052;-50
2022/08/13 12:31:00;;;;;;;2.50;1.83;;;24.10;93.40;;;;;;5092183;28;20082;-50
2022/08/13 12:33:34;;;;;;;1.85;1.73;;;24.60;93.10;;;;;;5083437;28;20044;-51
2022/08/13 12:36:11;;;;;;;4.15;1.83;;;25.20;91.80;;;;;;5079911;28;20045;-50
2022/08/13 12:38:44;;;;;;;6.45;1.70;;;25.30;92.10;;;;;;5071623;28;20056;-51
2022/08/13 12:41:28;;;;;;;2.65;1.92;;;25.30;93.20;;;;;;5071416;28;20452;-50
2022/08/13 12:44:10;;;;;;;4.28;1.75;;;24.90;93.30;;;;;;5055726;28;20074;-53
2022/08/13 12:46:56;;;;;;;6.28;2.28;;;24.60;92.40;;;;;;5069647;28;20443;-50
2022/08/13 12:49:28;;;;;;;2.17;1.88;;;24.40;93.30;;;;;;5070757;28;20115;-50
2022/08/13 12:51:55;;;;;;;;;;;24.30;93.60;;;;;;5067578;28;20041;-49
2022/08/13 12:54:25;;;;;;;2.75;1.88;;;24.40;93.30;;;;;;5069577;28;19920;-50
2022/08/13 12:57:12;;;;;;;2.78;1.80;;;24.40;93.20;;;;;;5070728;28;20036;-51
2022/08/13 12:59:59;;;;;;;4.53;1.92;;;24.50;93.00;;;;;;5068313;28;20110;-51
2022/08/13 13:02:33;;;;;;;4.40;2.05;;;24.60;92.70;;;;;;5070554;28;20040;-52
2022/08/13 13:05:01;;;;;;;2.40;1.83;;;24.80;93.00;;;;;;5069724;28;20107;-50
2022/08/13 13:07:47;;;;;;;2.63;1.73;;;25.30;92.00;;;;;;5069489;28;20054;-50
2022/08/13 13:10:36;;;;;;;3.13;1.75;;;26.00;91.70;;;;;;5070118;28;20104;-52
2022/08/13 13:13:04;;;;;;;4.50;2.15;;;26.30;90.90;;;;;;5079663;28;20431;-50
2022/08/13 13:15:51;;;;;;;2.25;1.83;;;26.30;91.50;;;;;;5071450;28;20194;-51
2022/08/13 13:18:38;;;;;;;;;;;26.30;91.60;;;;;;5071626;28;20089;-50
2022/08/13 13:21:20;;;;;;;4.90;2.13;;;26.70;91.00;;;;;;5072212;28;20392;-51
2022/08/13 13:24:08;;;;;;;2.55;2.35;;;26.80;90.70;;;;;;5090376;28;20050;-51
2022/08/13 13:26:49;;;;;;;6.57;2.42;;;26.70;90.90;;;;;;5089739;28;20071;-53
2022/08/13 13:29:25;;;;;;;4.20;1.90;;;26.30;91.10;;;;;;5079344;28;20044;-49
2022/08/13 13:31:53;;;;;;;5.78;1.98;;;26.10;91.60;;;;;;5088283;28;20052;-49
2022/08/13 13:34:44;;;;;;;5.03;2.13;;;26.10;91.80;;;;;;5091286;28;20105;-50
2022/08/13 13:37:13;;;;;;;2.10;1.90;;;26.40;90.80;;;;;;5080427;28;20489;-49
2022/08/13 13:39:40;;;;;;;2.20;2.00;;;26.40;90.50;;;;;;5039700;28;20448;-51
2022/08/13 13:42:10;;;;;;;6.55;2.30;;;26.50;91.60;;;;;;5072938;28;20489;-51
2022/08/13 13:44:43;;;;;;;3.13;1.85;;;26.40;90.10;;;;;;5070727;28;20067;-52
2022/08/13 13:47:11;;;;;;;2.65;2.30;;;26.40;91.20;;;;;;5069993;28;20116;-50
2022/08/13 13:49:40;;;;;;;1.80;1.70;;;26.40;91.20;;;;;;5070880;28;20041;-51
2022/08/13 13:52:10;;;;;;;5.50;2.00;;;26.50;91.40;;;;;;5072214;28;20044;-51
2022/08/13 13:54:37;;;;;;;3.85;2.25;;;26.70;90.50;;;;;;5083340;28;20513;-49
2022/08/13 13:57:05;;;;;;;3.20;2.25;;;26.80;90.00;;;;;;5069052;28;20033;-49
2022/08/13 13:59:33;;;;;;;2.60;2.30;;;26.70;90.30;;;;;;5071201;28;20090;-49